Time;durP1;ratioP1;P1;durP2;ratioP2;P2;SDS_P1;SDS_P2;PMS_P1;PMS_P2;Temp;Humidity;BMP_temperature;BMP_pressure;BME280_temperature;BME280_humidity;BME280_pressure;Samples;Min_cycle;Max_cycle;Signal;HPM_P1;HPM_P2
2023/10/13 00:00:40;;;;;;;6.37;1.80;;;;;;;;;;5072694;28;20742;-82
2023/10/13 00:03:06;;;;;;;8.50;1.60;;;;;;;;;;5054622;28;20509;-82
2023/10/13 00:05:33;;;;;;;7.00;1.63;;;;;;;;;;5054617;28;20822;-81
2023/10/13 00:08:02;;;;;;;8.00;1.17;;;;;;;;;;5072543;28;20404;-81
2023/10/13 00:10:29;;;;;;;5.30;1.83;;;;;;;;;;5074110;28;20453;-84
2023/10/13 00:13:05;;;;;;;4.87;1.07;;;;;;;;;;5079323;28;20403;-82
2023/10/13 00:15:38;;;;;;;6.60;1.97;;;;;;;;;;5079204;28;20410;-84
2023/10/13 00:18:09;;;;;;;7.10;1.87;;;;;;;;;;5061165;28;20461;-85
2023/10/13 00:20:37;;;;;;;6.77;1.63;;;;;;;;;;5060950;28;20422;-85
2023/10/13 00:23:03;;;;;;;6.40;1.60;;;;;;;;;;5079023;28;20414;-84
2023/10/13 00:25:43;;;;;;;8.27;1.60;;;;;;;;;;5079331;28;20414;-86
2023/10/13 00:28:09;;;;;;;8.73;2.07;;;;;;;;;;5061518;28;20458;-82
2023/10/13 00:30:35;;;;;;;7.97;2.40;;;;;;;;;;5079320;28;21018;-88
2023/10/13 00:33:01;;;;;;;9.73;2.17;;;;;;;;;;5079702;28;20535;-91
2023/10/13 00:35:37;;;;;;;7.03;2.20;;;;;;;;;;5061117;28;20461;-90
2023/10/13 00:38:04;;;;;;;8.60;2.67;;;;;;;;;;5079342;28;20415;-90
2023/10/13 00:43:28;;;;;;;8.27;2.20;;;;;;;;;;5079447;28;20435;-89
2023/10/13 00:45:44;;;;;;;7.30;2.30;;;;;;;;;;5079091;28;20502;-86
2023/10/13 00:48:14;;;;;;;5.83;2.40;;;;;;;;;;5079214;28;20517;-83
2023/10/13 00:50:40;;;;;;;10.87;3.10;;;;;;;;;;5079280;28;20411;-80
2023/10/13 00:53:07;;;;;;;6.20;2.10;;;;;;;;;;5079305;28;20433;-92
2023/10/13 00:55:33;;;;;;;8.00;2.57;;;;;;;;;;5078652;28;20460;-83
2023/10/13 00:58:03;;;;;;;7.57;2.97;;;;;;;;;;5061469;28;20446;-85
2023/10/13 01:00:46;;;;;;;7.03;2.80;;;;;;;;;;5061559;28;20914;-81
2023/10/13 01:03:12;;;;;;;9.60;2.80;;;;;;;;;;5061304;28;20830;-89
2023/10/13 01:05:39;;;;;;;7.40;4.40;;;;;;;;;;5079850;28;20411;-81
2023/10/13 01:08:10;;;;;;;11.43;3.47;;;;;;;;;;5079558;28;20486;-92
2023/10/13 01:10:37;;;;;;;13.30;3.43;;;;;;;;;;5079925;28;20398;-86
2023/10/13 01:13:03;;;;;;;8.10;3.43;;;;;;;;;;5062537;28;20407;-89
2023/10/13 01:15:30;;;;;;;9.83;2.67;;;;;;;;;;5079830;28;20411;-85
2023/10/13 01:18:16;;;;;;;4.70;1.83;;;;;;;;;;5079628;28;20407;-82
2023/10/13 01:20:45;;;;;;;15.10;2.90;;;;;;;;;;5079940;28;20407;-81
2023/10/13 01:23:24;;;;;;;8.87;3.80;;;;;;;;;;5076036;28;20407;-85
2023/10/13 01:25:50;;;;;;;11.43;3.53;;;;;;;;;;5075857;28;20494;-82
2023/10/13 01:28:17;;;;;;;8.80;3.47;;;;;;;;;;5058551;28;20455;-83
2023/10/13 01:30:49;;;;;;;9.13;3.60;;;;;;;;;;5058549;28;20898;-86
2023/10/13 01:33:15;;;;;;;6.73;2.83;;;;;;;;;;5058114;28;20843;-88
2023/10/13 01:35:47;;;;;;;10.70;2.60;;;;;;;;;;5075395;28;20506;-80
2023/10/13 01:38:13;;;;;;;9.63;4.30;;;;;;;;;;5075579;28;20757;-83
2023/10/13 01:40:39;;;;;;;14.10;4.17;;;;;;;;;;5074962;28;20406;-88
2023/10/13 01:43:10;;;;;;;7.50;3.37;;;;;;;;;;5075391;28;20405;-82
2023/10/13 01:45:38;;;;;;;10.13;3.80;;;;;;;;;;5074229;28;20471;-81
2023/10/13 01:48:07;;;;;;;10.03;3.77;;;;;;;;;;5056962;28;20556;-86
2023/10/13 01:50:33;;;;;;;10.00;3.50;;;;;;;;;;5074977;28;20419;-80
2023/10/13 01:53:17;;;;;;;9.10;4.00;;;;;;;;;;5057046;28;20467;-79
2023/10/13 01:55:43;;;;;;;11.80;4.60;;;;;;;;;;5074538;28;20466;-85
2023/10/13 01:58:16;;;;;;;9.00;3.60;;;;;;;;;;5056976;28;20431;-88
2023/10/13 02:00:47;;;;;;;8.73;4.40;;;;;;;;;;5074928;28;20426;-84
2023/10/13 02:03:17;;;;;;;11.30;5.53;;;;;;;;;;5074825;28;20410;-82
2023/10/13 02:05:46;;;;;;;11.30;6.00;;;;;;;;;;5074829;28;20450;-81
2023/10/13 02:08:18;;;;;;;10.37;5.33;;;;;;;;;;5056981;28;20458;-82
2023/10/13 02:10:44;;;;;;;12.40;5.70;;;;;;;;;;5056689;28;21041;-89
2023/10/13 02:13:17;;;;;;;13.63;6.03;;;;;;;;;;5074566;28;20410;-83
2023/10/13 02:15:48;;;;;;;12.90;5.70;;;;;;;;;;5074981;28;20494;-83
2023/10/13 02:18:21;;;;;;;12.67;6.30;;;;;;;;;;5074806;28;20410;-79
2023/10/13 02:21:04;;;;;;;12.47;6.20;;;;;;;;;;5074447;28;20392;-83
2023/10/13 02:23:30;;;;;;;13.33;6.37;;;;;;;;;;5073993;28;20421;-81
2023/10/13 02:26:10;;;;;;;11.97;6.40;;;;;;;;;;5056524;28;20494;-86
2023/10/13 02:28:36;;;;;;;13.37;5.80;;;;;;;;;;5074427;28;20483;-82
2023/10/13 02:31:03;;;;;;;13.30;7.03;;;;;;;;;;5074089;28;20428;-85
2023/10/13 02:33:29;;;;;;;14.20;7.20;;;;;;;;;;5073829;28;20417;-87
2023/10/13 02:35:59;;;;;;;14.17;6.00;;;;;;;;;;5056242;28;20556;-85
2023/10/13 02:38:37;;;;;;;14.60;7.53;;;;;;;;;;5073780;28;20438;-80
2023/10/13 02:41:05;;;;;;;14.23;7.57;;;;;;;;;;5074095;28;20480;-82
2023/10/13 02:43:38;;;;;;;13.03;7.57;;;;;;;;;;5056163;28;20425;-82
2023/10/13 02:46:04;;;;;;;16.37;6.97;;;;;;;;;;5074186;28;20745;-79
2023/10/13 02:48:39;;;;;;;13.17;7.90;;;;;;;;;;5073339;28;20470;-81
2023/10/13 02:51:07;;;;;;;16.97;7.20;;;;;;;;;;5073911;28;20411;-83
2023/10/13 02:53:33;;;;;;;13.87;7.57;;;;;;;;;;5073527;28;20402;-82
2023/10/13 02:56:08;;;;;;;16.87;9.57;;;;;;;;;;5073477;28;20473;-83
2023/10/13 02:58:38;;;;;;;19.67;8.83;;;;;;;;;;5073583;28;20180;-86
2023/10/13 03:01:16;;;;;;;19.50;8.77;;;;;;;;;;5055913;28;20428;-82
2023/10/13 03:03:43;;;;;;;13.53;8.03;;;;;;;;;;5073866;28;20526;-88
2023/10/13 03:06:11;;;;;;;19.97;9.90;;;;;;;;;;5055483;28;20510;-79
2023/10/13 03:08:38;;;;;;;15.23;8.33;;;;;;;;;;5073020;28;20450;-81
2023/10/13 03:11:05;;;;;;;15.73;8.27;;;;;;;;;;5073529;28;20438;-88
2023/10/13 03:13:33;;;;;;;24.07;10.10;;;;;;;;;;5073484;28;20410;-83
2023/10/13 03:15:59;;;;;;;16.50;7.90;;;;;;;;;;5073372;28;20771;-84
2023/10/13 03:18:25;;;;;;;18.67;8.70;;;;;;;;;;5073236;28;21519;-84
2023/10/13 03:20:56;;;;;;;17.00;10.73;;;;;;;;;;5073298;28;20410;-84
2023/10/13 03:23:24;;;;;;;14.50;10.00;;;;;;;;;;5072363;28;20892;-84
2023/10/13 03:25:50;;;;;;;19.30;9.83;;;;;;;;;;5055524;28;20423;-81
2023/10/13 03:28:23;;;;;;;18.80;9.77;;;;;;;;;;5073268;28;20508;-84
2023/10/13 03:30:52;;;;;;;19.00;9.80;;;;;;;;;;5073225;28;20774;-84
2023/10/13 03:33:27;;;;;;;16.60;9.90;;;;;;;;;;5073092;28;20911;-80
2023/10/13 03:35:54;;;;;;;17.10;9.57;;;;;;;;;;5073035;28;20426;-89
2023/10/13 03:38:20;;;;;;;12.63;9.57;;;;;;;;;;5054779;28;20415;-82
2023/10/13 03:41:20;;;;;;;18.60;9.00;;;;;;;;;;5054962;28;20505;-80
2023/10/13 03:43:51;;;;;;;20.87;9.70;;;;;;;;;;5072929;28;20395;-82
2023/10/13 03:46:21;;;;;;;19.30;12.03;;;;;;;;;;5072972;28;20399;-90
2023/10/13 03:49:01;;;;;;;18.70;11.30;;;;;;;;;;5073319;28;20869;-82
2023/10/13 03:51:31;;;;;;;15.70;10.30;;;;;;;;;;5054986;28;20422;-82
2023/10/13 03:53:58;;;;;;;19.90;10.60;;;;;;;;;;5072483;28;20399;-89
2023/10/13 03:56:28;;;;;;;21.83;12.63;;;;;;;;;;5054569;28;20822;-78
2023/10/13 03:59:09;;;;;;;16.27;11.53;;;;;;;;;;5072960;28;20503;-86
2023/10/13 04:01:45;;;;;;;22.60;9.43;;;;;;;;;;5073205;28;20435;-83
2023/10/13 04:04:11;;;;;;;19.47;11.07;;;;;;;;;;5072587;28;20410;-88
2023/10/13 04:17:29;;;;;;;20.87;12.30;;;;;;;;;;5073827;28;20472;-85
2023/10/13 04:28:14;;;;;;;21.40;11.83;;;;;;;;;;5072893;28;20515;-89
2023/10/13 04:36:36;;;;;;;18.33;11.87;;;;;;;;;;5093380;28;20404;-86
2023/10/13 04:44:52;;;;;;;21.17;12.17;;;;;;;;;;5093202;28;20495;-89
2023/10/13 04:49:28;;;;;;;21.60;13.60;;;;;;;;;;5092785;28;20566;-87
2023/10/13 04:52:12;;;;;;;21.57;12.60;;;;;;;;;;5092757;28;20395;-82
2023/10/13 06:28:40;;;;;;;32.87;23.50;;;;;;;;;;5074997;28;20474;-88
2023/10/13 06:29:36;;;;;;;37.07;27.97;;;;;;;;;;5096794;28;20450;-80
2023/10/13 06:32:10;;;;;;;41.00;29.07;;;;;;;;;;5095856;28;20428;-81
2023/10/13 06:34:44;;;;;;;36.07;28.77;;;;;;;;;;5101907;28;20903;-86
2023/10/13 06:37:22;;;;;;;36.43;28.00;;;;;;;;;;5115479;28;20412;-89
2023/10/13 06:39:52;;;;;;;35.30;26.50;;;;;;;;;;5115525;28;20830;-90
2023/10/13 06:42:19;;;;;;;35.30;27.37;;;;;;;;;;5116438;28;20919;-88
2023/10/13 06:44:46;;;;;;;37.13;28.37;;;;;;;;;;5117608;28;20504;-94
2023/10/13 06:47:12;;;;;;;36.43;27.40;;;;;;;;;;5103911;28;20421;-94
2023/10/13 06:49:39;;;;;;;33.40;28.60;;;;;;;;;;5078252;28;20482;-83
2023/10/13 06:52:06;;;;;;;34.40;25.80;;;;;;;;;;5094595;28;20420;-79
2023/10/13 06:54:36;;;;;;;37.90;26.43;;;;;;;;;;5094149;28;20421;-92
2023/10/13 06:57:06;;;;;;;31.53;25.13;;;;;;;;;;5095972;28;20412;-86
2023/10/13 06:59:34;;;;;;;31.33;25.50;;;;;;;;;;5094804;28;20447;-83
2023/10/13 07:02:09;;;;;;;40.80;26.80;;;;;;;;;;5096294;28;20503;-89
2023/10/13 07:04:39;;;;;;;31.80;24.67;;;;;;;;;;5096733;28;20885;-91
2023/10/13 07:07:10;;;;;;;32.20;26.07;;;;;;;;;;5093808;28;20401;-79
2023/10/13 07:12:03;;;;;;;32.27;22.97;;;;;;;;;;5094074;28;20414;-86
2023/10/13 07:14:33;;;;;;;30.90;25.67;;;;;;;;;;5094800;28;20419;-92
2023/10/13 07:17:05;;;;;;;30.60;24.97;;;;;;;;;;5075843;28;20920;-83
2023/10/13 07:19:31;;;;;;;31.60;24.10;;;;;;;;;;5093698;28;20509;-91
2023/10/13 07:24:43;;;;;;;28.87;24.50;;;;;;;;;;5093154;28;20906;-80
2023/10/13 07:27:09;;;;;;;27.63;24.67;;;;;;;;;;5093567;28;20457;-89
2023/10/13 07:29:35;;;;;;;29.10;22.67;;;;;;;;;;5075787;28;20475;-86
2023/10/13 07:32:12;;;;;;;35.17;23.07;;;;;;;;;;5093496;28;20509;-93
2023/10/13 07:34:39;;;;;;;27.27;23.67;;;;;;;;;;5094196;28;20416;-79
2023/10/13 07:37:12;;;;;;;24.47;21.63;;;;;;;;;;5094590;28;20436;-79
2023/10/13 07:39:40;;;;;;;27.27;21.20;;;;;;;;;;5093793;28;20414;-83
2023/10/13 07:42:14;;;;;;;23.93;20.30;;;;;;;;;;5096122;28;20405;-80
2023/10/13 07:44:45;;;;;;;24.60;20.77;;;;;;;;;;5094103;28;20951;-84
2023/10/13 07:47:14;;;;;;;23.60;19.50;;;;;;;;;;5094634;28;20496;-80
2023/10/13 07:49:40;;;;;;;21.00;18.80;;;;;;;;;;5094349;28;20475;-91
2023/10/13 07:52:18;;;;;;;21.40;15.83;;;;;;;;;;5092480;28;20409;-80
2023/10/13 07:54:55;;;;;;;19.33;16.13;;;;;;;;;;5085237;28;20424;-82
2023/10/13 07:57:29;;;;;;;17.87;15.43;;;;;;;;;;5094468;28;20942;-80
2023/10/13 08:00:06;;;;;;;19.17;15.80;;;;;;;;;;5093526;28;20471;-82
2023/10/13 08:02:48;;;;;;;23.67;16.90;;;;;;;;;;5075441;28;20419;-84
2023/10/13 08:05:23;;;;;;;21.80;17.03;;;;;;;;;;5078864;28;20421;-84
2023/10/13 08:07:49;;;;;;;22.53;17.27;;;;;;;;;;5093124;28;20916;-81
2023/10/13 08:10:16;;;;;;;19.07;16.33;;;;;;;;;;5094598;28;20473;-78
2023/10/13 08:12:44;;;;;;;20.57;16.10;;;;;;;;;;5093129;28;20681;-87
2023/10/13 08:15:21;;;;;;;16.43;14.73;;;;;;;;;;5094456;28;20891;-85
2023/10/13 08:17:47;;;;;;;16.67;14.83;;;;;;;;;;5075208;28;20951;-81
2023/10/13 08:20:16;;;;;;;18.70;15.20;;;;;;;;;;5093018;28;20411;-78
2023/10/13 08:22:47;;;;;;;17.60;14.27;;;;;;;;;;5093326;28;20473;-86
2023/10/13 08:26:13;;;;;;;15.87;14.17;;;;;;;;;;5093576;28;20784;-77
2023/10/13 08:30:53;;;;;;;16.97;13.00;;;;;;;;;;5093096;28;20815;-87
2023/10/13 08:33:24;;;;;;;16.53;13.50;;;;;;;;;;5098269;28;20414;-87
2023/10/13 08:38:50;;;;;;;13.40;11.80;;;;;;;;;;5098882;28;20415;-88
2023/10/13 08:43:50;;;;;;;13.10;11.50;;;;;;;;;;5098041;28;20424;-77
2023/10/13 08:46:28;;;;;;;14.07;12.70;;;;;;;;;;5080339;28;20414;-82
2023/10/13 08:49:06;;;;;;;13.53;12.13;;;;;;;;;;5097826;28;20462;-79
2023/10/13 08:51:43;;;;;;;13.10;10.83;;;;;;;;;;5098471;28;20405;-80
2023/10/13 08:54:19;;;;;;;12.27;11.07;;;;;;;;;;5097679;28;20412;-82
2023/10/13 08:56:56;;;;;;;15.90;10.10;;;;;;;;;;5093902;28;20413;-79
2023/10/13 08:59:23;;;;;;;11.13;9.13;;;;;;;;;;5096930;28;20443;-84
2023/10/13 09:01:59;;;;;;;10.40;9.13;;;;;;;;;;5097382;28;20401;-80
2023/10/13 09:07:09;;;;;;;10.63;9.63;;;;;;;;;;5099511;28;20444;-81
2023/10/13 09:12:13;;;;;;;9.57;7.83;;;;;;;;;;5098125;28;20419;-88
2023/10/13 09:14:47;;;;;;;7.30;6.40;;;;;;;;;;5096202;28;20495;-86
2023/10/13 09:19:47;;;;;;;6.47;5.53;;;;;;;;;;5100411;28;20415;-91
2023/10/13 09:22:27;;;;;;;8.17;5.37;;;;;;;;;;5122889;28;20446;-81
2023/10/13 09:25:00;;;;;;;6.43;5.63;;;;;;;;;;5122208;28;20407;-80
2023/10/13 09:27:33;;;;;;;5.80;4.83;;;;;;;;;;5099652;28;20424;-84
2023/10/13 09:30:23;;;;;;;5.83;5.20;;;;;;;;;;5118463;28;20479;-77
2023/10/13 09:33:01;;;;;;;6.60;5.40;;;;;;;;;;5117923;28;20450;-90
2023/10/13 09:35:28;;;;;;;6.00;4.23;;;;;;;;;;5120072;28;20422;-85
2023/10/13 09:37:56;;;;;;;5.47;3.93;;;;;;;;;;5098979;28;20513;-87
2023/10/13 09:40:33;;;;;;;4.27;3.87;;;;;;;;;;5100780;28;20439;-79
2023/10/13 09:43:07;;;;;;;4.93;3.57;;;;;;;;;;5091072;28;20412;-79
2023/10/13 09:45:38;;;;;;;6.30;4.30;;;;;;;;;;5092023;28;20980;-82
2023/10/13 09:48:06;;;;;;;5.60;3.57;;;;;;;;;;5089333;28;20757;-77
2023/10/13 09:50:37;;;;;;;4.10;3.27;;;;;;;;;;5089588;28;20423;-85
2023/10/13 09:53:05;;;;;;;6.20;3.63;;;;;;;;;;5086045;28;20886;-85
2023/10/13 09:55:39;;;;;;;4.40;3.67;;;;;;;;;;5093174;28;20432;-88
2023/10/13 09:58:10;;;;;;;8.67;3.87;;;;;;;;;;5086769;28;20406;-89
2023/10/13 10:06:05;;;;;;;7.93;4.63;;;;;;;;;;5091897;28;20482;-82
2023/10/13 10:08:34;;;;;;;7.50;3.40;;;;;;;;;;5088214;28;20459;-78
2023/10/13 10:11:20;;;;;;;10.23;3.90;;;;;;;;;;5094403;28;20461;-82
2023/10/13 10:13:57;;;;;;;5.70;3.30;;;;;;;;;;5095057;28;20419;-77
2023/10/13 10:16:36;;;;;;;7.53;3.60;;;;;;;;;;5084349;28;20736;-83
2023/10/13 10:19:01;;;;;;;5.00;3.10;;;;;;;;;;5086024;28;20397;-90
2023/10/13 10:21:37;;;;;;;5.83;3.63;;;;;;;;;;5095261;28;20777;-85
2023/10/13 10:24:07;;;;;;;6.83;3.43;;;;;;;;;;5089132;28;20485;-86
2023/10/13 10:26:33;;;;;;;7.63;4.00;;;;;;;;;;5093367;28;20394;-95
2023/10/13 10:29:07;;;;;;;7.13;4.00;;;;;;;;;;5083283;28;20483;-87
2023/10/13 10:31:41;;;;;;;6.10;3.53;;;;;;;;;;5093087;28;20419;-82
2023/10/13 10:34:14;;;;;;;5.27;3.30;;;;;;;;;;5086585;28;20416;-78
2023/10/13 10:36:42;;;;;;;6.03;3.50;;;;;;;;;;5083379;28;20441;-76
2023/10/13 10:39:11;;;;;;;7.80;3.93;;;;;;;;;;5065934;28;20417;-81
2023/10/13 10:44:34;;;;;;;7.80;4.47;;;;;;;;;;5087041;28;20766;-81
2023/10/13 10:47:09;;;;;;;7.33;3.53;;;;;;;;;;5068816;28;20470;-77
2023/10/13 10:49:37;;;;;;;6.30;3.60;;;;;;;;;;5083463;28;20806;-82
2023/10/13 10:52:07;;;;;;;5.13;4.17;;;;;;;;;;5068053;28;20409;-82
2023/10/13 10:54:33;;;;;;;6.10;3.90;;;;;;;;;;5080638;28;20505;-77
2023/10/13 10:57:10;;;;;;;6.83;4.17;;;;;;;;;;5080978;28;21031;-91
2023/10/13 10:59:40;;;;;;;7.90;4.20;;;;;;;;;;5071448;28;20625;-86
2023/10/13 11:02:15;;;;;;;7.27;3.30;;;;;;;;;;5084224;28;20493;-87
2023/10/13 11:04:50;;;;;;;4.80;2.50;;;;;;;;;;5079886;28;20420;-76
2023/10/13 11:07:21;;;;;;;6.20;3.63;;;;;;;;;;5082633;28;20975;-80
2023/10/13 11:09:47;;;;;;;4.97;3.30;;;;;;;;;;5084909;28;20496;-80
2023/10/13 11:12:26;;;;;;;5.00;3.57;;;;;;;;;;5067449;28;20839;-88
2023/10/13 11:15:46;;;;;;;7.03;2.93;;;;;;;;;;5088813;28;20429;-76
2023/10/13 11:17:56;;;;;;;5.10;2.87;;;;;;;;;;5079072;28;20742;-82
2023/10/13 11:20:25;;;;;;;7.43;3.20;;;;;;;;;;5081459;28;20498;-89
2023/10/13 11:22:52;;;;;;;7.40;4.40;;;;;;;;;;5055820;28;20458;-77
2023/10/13 11:25:35;;;;;;;9.07;3.60;;;;;;;;;;5073292;28;20403;-76
2023/10/13 11:28:17;;;;;;;8.10;3.50;;;;;;;;;;5075288;28;20802;-78
2023/10/13 11:30:45;;;;;;;9.23;3.67;;;;;;;;;;5097357;28;20500;-78
2023/10/13 11:33:11;;;;;;;5.50;3.40;;;;;;;;;;5069969;28;20569;-77
2023/10/13 11:35:49;;;;;;;5.63;2.90;;;;;;;;;;5091408;28;20425;-80
2023/10/13 11:38:24;;;;;;;7.50;3.80;;;;;;;;;;5083769;28;20457;-87
2023/10/13 11:43:36;;;;;;;6.70;3.73;;;;;;;;;;5081773;28;20881;-82
2023/10/13 11:48:34;;;;;;;4.57;2.77;;;;;;;;;;5082130;28;20561;-77
2023/10/13 11:51:00;;;;;;;7.40;3.40;;;;;;;;;;5082375;28;20857;-78
2023/10/13 11:53:28;;;;;;;6.27;3.67;;;;;;;;;;5086595;28;20406;-77
2023/10/13 11:55:55;;;;;;;4.83;3.57;;;;;;;;;;5089862;28;20445;-87
2023/10/13 11:58:21;;;;;;;6.80;3.23;;;;;;;;;;5086849;28;20467;-81
2023/10/13 12:11:42;;;;;;;5.77;3.03;;;;;;;;;;5082499;28;20462;-75
2023/10/13 12:14:16;;;;;;;5.03;3.23;;;;;;;;;;5061278;28;20947;-77
2023/10/13 12:16:42;;;;;;;10.00;3.33;;;;;;;;;;5062790;28;20451;-77
2023/10/13 12:19:11;;;;;;;8.60;3.90;;;;;;;;;;5084599;28;20413;-87
2023/10/13 12:21:37;;;;;;;11.00;3.50;;;;;;;;;;5083008;28;20483;-78
2023/10/13 12:24:11;;;;;;;8.17;3.73;;;;;;;;;;5081124;28;20454;-77
2023/10/13 12:26:41;;;;;;;8.50;3.20;;;;;;;;;;5081673;28;20424;-79
2023/10/13 12:29:08;;;;;;;6.43;3.23;;;;;;;;;;5084335;28;20461;-93
2023/10/13 12:31:38;;;;;;;10.40;4.03;;;;;;;;;;5086218;28;20423;-78
2023/10/13 12:34:19;;;;;;;8.20;3.03;;;;;;;;;;5086572;28;20410;-93
2023/10/13 12:37:05;;;;;;;4.87;2.70;;;;;;;;;;5083328;28;20451;-94
2023/10/13 12:50:44;;;;;;;11.30;3.57;;;;;;;;;;5083076;28;20417;-93
2023/10/13 12:53:13;;;;;;;8.33;3.13;;;;;;;;;;5084537;28;20399;-92
2023/10/13 12:55:42;;;;;;;5.93;2.70;;;;;;;;;;5064254;28;20904;-85
2023/10/13 12:58:08;;;;;;;10.10;3.37;;;;;;;;;;5087463;28;20415;-92
2023/10/13 13:00:34;;;;;;;9.23;3.80;;;;;;;;;;5086568;28;20918;-78
2023/10/13 13:03:11;;;;;;;8.40;3.70;;;;;;;;;;5082861;28;20409;-76
2023/10/13 13:05:44;;;;;;;10.57;4.20;;;;;;;;;;5083970;28;20157;-87
2023/10/13 13:08:12;;;;;;;5.97;3.80;;;;;;;;;;5081848;28;20435;-77
2023/10/13 13:10:38;;;;;;;9.23;3.47;;;;;;;;;;5079859;28;20443;-93
2023/10/13 13:13:05;;;;;;;9.33;4.00;;;;;;;;;;5084482;28;20859;-77
2023/10/13 13:15:31;;;;;;;7.10;3.50;;;;;;;;;;5082701;28;20408;-78
2023/10/13 13:17:58;;;;;;;7.10;3.47;;;;;;;;;;5085119;28;20822;-78
2023/10/13 13:20:28;;;;;;;7.27;3.57;;;;;;;;;;5085863;28;20414;-90
2023/10/13 13:22:55;;;;;;;6.33;3.30;;;;;;;;;;5084534;28;20554;-79
2023/10/13 13:25:30;;;;;;;7.17;3.90;;;;;;;;;;5090940;28;20903;-83
2023/10/13 13:27:55;;;;;;;9.73;3.90;;;;;;;;;;5089164;28;20466;-89
2023/10/13 13:30:22;;;;;;;9.23;4.73;;;;;;;;;;5085659;28;20465;-77
2023/10/13 13:32:48;;;;;;;8.40;4.20;;;;;;;;;;5088493;28;20253;-78
2023/10/13 13:35:15;;;;;;;10.10;3.67;;;;;;;;;;5085745;28;20436;-91
2023/10/13 13:37:44;;;;;;;7.30;3.67;;;;;;;;;;5086088;28;20402;-80
2023/10/13 13:40:14;;;;;;;11.30;3.83;;;;;;;;;;5086881;28;20417;-79
2023/10/13 13:42:40;;;;;;;7.63;2.97;;;;;;;;;;5085533;28;20398;-87
2023/10/13 13:45:11;;;;;;;7.50;3.53;;;;;;;;;;5087844;28;20409;-88
2023/10/13 13:47:37;;;;;;;11.70;4.17;;;;;;;;;;5084112;28;20405;-80
2023/10/13 13:50:14;;;;;;;8.83;4.67;;;;;;;;;;5087435;28;21051;-78
2023/10/13 13:52:45;;;;;;;7.40;3.37;;;;;;;;;;5084478;28;20266;-79
2023/10/13 13:55:17;;;;;;;7.73;3.83;;;;;;;;;;5086745;28;20901;-76
2023/10/13 13:57:43;;;;;;;9.30;3.30;;;;;;;;;;5082487;28;20436;-78
2023/10/13 14:00:16;;;;;;;12.90;3.80;;;;;;;;;;5085687;28;20975;-79
2023/10/13 14:02:47;;;;;;;12.87;4.13;;;;;;;;;;5083210;28;20462;-87
2023/10/13 14:05:15;;;;;;;9.43;4.60;;;;;;;;;;5086223;28;20457;-81
2023/10/13 14:07:41;;;;;;;11.60;3.67;;;;;;;;;;5086157;28;20413;-78
2023/10/13 14:10:15;;;;;;;8.47;4.10;;;;;;;;;;5084604;28;20486;-83
2023/10/13 14:12:41;;;;;;;7.17;3.50;;;;;;;;;;5088531;28;20165;-77
2023/10/13 14:15:19;;;;;;;11.73;5.40;;;;;;;;;;5084965;28;20922;-82
2023/10/13 14:17:46;;;;;;;8.90;4.30;;;;;;;;;;5089747;28;20423;-78
2023/10/13 14:20:18;;;;;;;6.97;4.50;;;;;;;;;;5085203;28;20905;-79
2023/10/13 14:22:47;;;;;;;10.00;4.63;;;;;;;;;;5082756;28;20462;-78
2023/10/13 14:25:14;;;;;;;9.90;4.93;;;;;;;;;;5088623;28;20421;-78
2023/10/13 14:27:40;;;;;;;15.03;4.90;;;;;;;;;;5087383;28;20410;-92
2023/10/13 14:30:06;;;;;;;11.77;3.97;;;;;;;;;;5095769;28;20473;-79
2023/10/13 14:32:32;;;;;;;10.10;4.70;;;;;;;;;;5097765;28;20219;-79
2023/10/13 14:35:00;;;;;;;7.83;4.37;;;;;;;;;;5097205;28;20418;-82
2023/10/13 14:37:30;;;;;;;8.10;5.20;;;;;;;;;;5095427;28;20779;-89
2023/10/13 14:39:57;;;;;;;7.10;4.00;;;;;;;;;;5096749;28;20475;-79
2023/10/13 14:42:26;;;;;;;11.07;4.70;;;;;;;;;;5096155;28;20773;-82
2023/10/13 14:44:55;;;;;;;14.50;5.07;;;;;;;;;;5092036;28;20518;-83
2023/10/13 14:47:24;;;;;;;11.23;5.07;;;;;;;;;;5093066;28;20530;-79
2023/10/13 14:49:59;;;;;;;11.80;4.60;;;;;;;;;;5093817;28;20471;-93
2023/10/13 14:52:26;;;;;;;12.20;4.17;;;;;;;;;;5094111;28;20403;-78
2023/10/13 14:54:55;;;;;;;8.33;3.97;;;;;;;;;;5095629;28;20509;-78
2023/10/13 14:57:24;;;;;;;15.47;4.63;;;;;;;;;;5095153;28;20517;-84
2023/10/13 14:59:51;;;;;;;12.80;4.07;;;;;;;;;;5094975;28;20411;-78
2023/10/13 15:02:16;;;;;;;9.00;4.20;;;;;;;;;;5091587;28;20411;-76
2023/10/13 15:04:43;;;;;;;9.77;4.20;;;;;;;;;;5083560;28;20529;-79
2023/10/13 15:07:09;;;;;;;9.93;4.27;;;;;;;;;;5075730;28;20177;-82
2023/10/13 15:09:35;;;;;;;10.60;4.90;;;;;;;;;;5076344;28;20888;-93
2023/10/13 15:12:05;;;;;;;13.20;4.83;;;;;;;;;;5076242;28;20408;-89
2023/10/13 15:14:33;;;;;;;8.87;3.93;;;;;;;;;;5075680;28;20498;-88
2023/10/13 15:17:00;;;;;;;13.87;5.50;;;;;;;;;;5085860;28;20447;-90
2023/10/13 15:19:29;;;;;;;9.13;4.23;;;;;;;;;;5095187;28;20772;-84
2023/10/13 15:22:01;;;;;;;11.90;5.20;;;;;;;;;;5095459;28;20411;-81
2023/10/13 15:24:27;;;;;;;10.10;4.90;;;;;;;;;;5077448;28;20424;-82
2023/10/13 15:27:01;;;;;;;11.00;4.70;;;;;;;;;;5095928;28;20769;-89
2023/10/13 15:29:35;;;;;;;10.57;4.63;;;;;;;;;;5095281;28;20563;-88
2023/10/13 15:34:27;;;;;;;13.52;5.22;;;;;;;;;;5094157;28;20425;-84
2023/10/13 15:36:54;;;;;;;12.80;5.17;;;;;;;;;;5093847;28;20540;-88
2023/10/13 15:39:23;;;;;;;9.30;5.13;;;;;;;;;;5094130;28;20410;-88
2023/10/13 15:41:52;;;;;;;13.40;4.87;;;;;;;;;;5075177;28;20415;-82
2023/10/13 15:44:20;;;;;;;16.10;5.17;;;;;;;;;;5094887;28;20417;-84
2023/10/13 15:46:49;;;;;;;12.80;5.90;;;;;;;;;;5134913;22;20495;-90
2023/10/13 15:49:15;;;;;;;10.63;5.23;;;;;;;;;;5071935;28;20484;-81
2023/10/13 15:51:41;;;;;;;15.10;5.03;;;;;;;;;;5074170;28;20430;-87
2023/10/13 15:54:14;;;;;;;15.80;4.80;;;;;;;;;;5074460;28;20419;-82
2023/10/13 15:56:40;;;;;;;13.60;5.93;;;;;;;;;;5075178;28;20436;-81
2023/10/13 15:59:07;;;;;;;9.67;5.40;;;;;;;;;;5074035;28;21028;-88
2023/10/13 16:01:33;;;;;;;14.90;6.33;;;;;;;;;;5073761;28;20407;-85
2023/10/13 16:03:59;;;;;;;15.20;5.37;;;;;;;;;;5073734;28;20423;-92
2023/10/13 16:06:25;;;;;;;12.00;5.80;;;;;;;;;;5073969;28;20404;-77
2023/10/13 16:08:52;;;;;;;11.80;5.53;;;;;;;;;;5070499;28;20470;-92
2023/10/13 16:11:19;;;;;;;10.10;5.43;;;;;;;;;;5060512;28;20188;-86
2023/10/13 16:13:45;;;;;;;16.00;6.30;;;;;;;;;;5068728;28;20415;-76
2023/10/13 16:16:22;;;;;;;10.00;4.93;;;;;;;;;;5073833;28;20411;-79
2023/10/13 16:18:49;;;;;;;10.40;4.90;;;;;;;;;;5074076;28;20607;-94
2023/10/13 16:21:15;;;;;;;14.00;5.73;;;;;;;;;;5073598;28;20408;-83
2023/10/13 16:23:47;;;;;;;12.90;5.30;;;;;;;;;;5074152;28;20499;-79
2023/10/13 16:26:13;;;;;;;10.93;4.50;;;;;;;;;;5074699;28;20408;-84
2023/10/13 16:28:39;;;;;;;10.83;5.20;;;;;;;;;;5073174;28;20477;-88
2023/10/13 16:31:09;;;;;;;10.23;4.80;;;;;;;;;;5072965;28;20173;-89
2023/10/13 16:33:41;;;;;;;9.73;4.60;;;;;;;;;;5073160;28;20466;-80
2023/10/13 16:36:10;;;;;;;10.60;4.97;;;;;;;;;;5073629;28;20414;-87
2023/10/13 16:38:39;;;;;;;12.60;5.60;;;;;;;;;;5074112;28;20560;-79
2023/10/13 16:41:12;;;;;;;8.20;4.83;;;;;;;;;;5072992;28;20495;-79
2023/10/13 16:43:38;;;;;;;11.70;4.57;;;;;;;;;;5073480;28;20460;-79
2023/10/13 16:46:06;;;;;;;9.93;5.20;;;;;;;;;;5073638;28;20407;-82
2023/10/13 16:48:32;;;;;;;7.60;4.20;;;;;;;;;;5072718;28;20217;-90
2023/10/13 16:50:59;;;;;;;7.20;4.33;;;;;;;;;;5072817;28;20415;-79
2023/10/13 16:53:25;;;;;;;9.57;3.57;;;;;;;;;;5070363;28;20416;-86
2023/10/13 16:55:51;;;;;;;9.87;5.30;;;;;;;;;;5068051;28;20420;-80
2023/10/13 16:58:17;;;;;;;8.70;4.00;;;;;;;;;;5065159;28;20408;-80
2023/10/13 17:00:44;;;;;;;10.80;4.43;;;;;;;;;;5065613;28;20485;-79
2023/10/13 17:03:11;;;;;;;10.73;4.37;;;;;;;;;;5070069;28;20786;-83
2023/10/13 17:05:45;;;;;;;10.73;4.23;;;;;;;;;;5065040;28;20897;-79
2023/10/13 17:08:13;;;;;;;10.60;4.27;;;;;;;;;;5063842;28;20459;-79
2023/10/13 17:10:39;;;;;;;9.07;4.10;;;;;;;;;;5065154;28;20478;-83
2023/10/13 17:13:06;;;;;;;8.57;3.30;;;;;;;;;;5066888;28;20896;-79
2023/10/13 17:15:32;;;;;;;10.83;5.77;;;;;;;;;;5063983;28;20419;-80
2023/10/13 17:18:05;;;;;;;14.37;4.90;;;;;;;;;;5065578;28;20742;-82
2023/10/13 17:20:33;;;;;;;13.10;5.73;;;;;;;;;;5066457;28;20415;-82
2023/10/13 17:22:59;;;;;;;10.47;5.07;;;;;;;;;;5064820;28;20504;-79
2023/10/13 17:25:25;;;;;;;14.33;5.63;;;;;;;;;;5062756;28;20482;-80
2023/10/13 17:27:52;;;;;;;12.30;4.67;;;;;;;;;;5065434;28;20444;-81
2023/10/13 17:30:18;;;;;;;8.10;4.40;;;;;;;;;;5049151;28;20840;-80
2023/10/13 17:32:44;;;;;;;14.60;4.53;;;;;;;;;;5062577;28;20414;-79
2023/10/13 17:35:13;;;;;;;11.70;4.63;;;;;;;;;;5066316;28;20411;-80
2023/10/13 17:37:42;;;;;;;17.83;5.70;;;;;;;;;;5062580;28;20466;-81
2023/10/13 17:40:14;;;;;;;9.73;4.47;;;;;;;;;;5062358;28;20478;-81
2023/10/13 17:42:41;;;;;;;15.37;5.30;;;;;;;;;;5069614;28;20453;-85
2023/10/13 17:45:09;;;;;;;9.20;4.23;;;;;;;;;;5074482;28;20419;-82
2023/10/13 17:47:36;;;;;;;11.63;4.63;;;;;;;;;;5075011;28;20248;-80
2023/10/13 17:50:02;;;;;;;11.70;5.33;;;;;;;;;;5075567;28;20471;-87
2023/10/13 17:52:28;;;;;;;11.50;5.03;;;;;;;;;;5074845;28;20825;-86
2023/10/13 17:54:54;;;;;;;10.40;4.87;;;;;;;;;;5075583;28;20451;-79
2023/10/13 17:57:20;;;;;;;8.77;3.70;;;;;;;;;;5075599;28;20263;-79